Terminal Aerodrome Forecast
Issued by NWS Billings, MT

Home | Current Version | Previous Version | Graphics & Text | Print | Product List | Glossary Off
Versions: 1 2 3 4 5 6 7 8 9 10 11 12 13 14 15 16 17 18 19 20 21 22 23 24 25 26 27 28

000
FTUS45 KBYZ 280535
TAFMLS
TAF
KMLS 280535Z 2806/2906 15006KT P6SM FEW080
     FM280600 21007KT P6SM VCSH OVC100
     FM281600 12005KT 3SM -SN OVC030
     FM281900 06008KT 1SM -SN OVC010=

USA.gov is the U.S. government's official web portal to all federal, state and local government web resources and services.